sensor_id;sensor_type;location;lat;lon;timestamp;P1;durP1;ratioP1;P2;durP2;ratioP2
54167;SDS011;68429;50.958;3.592;2023-03-14T00:00:46;7.57;;;1.67;;
54167;SDS011;68429;50.958;3.592;2023-03-14T00:03:12;6.65;;;1.52;;
54167;SDS011;68429;50.958;3.592;2023-03-14T00:05:38;6.32;;;1.98;;
54167;SDS011;68429;50.958;3.592;2023-03-14T00:08:03;3.95;;;1.35;;
54167;SDS011;68429;50.958;3.592;2023-03-14T00:10:29;5.97;;;1.52;;
54167;SDS011;68429;50.958;3.592;2023-03-14T00:12:55;8.23;;;2.17;;
54167;SDS011;68429;50.958;3.592;2023-03-14T00:15:21;8.45;;;1.70;;
54167;SDS011;68429;50.958;3.592;2023-03-14T00:17:47;9.75;;;1.77;;
54167;SDS011;68429;50.958;3.592;2023-03-14T00:20:12;13.02;;;2.00;;
54167;SDS011;68429;50.958;3.592;2023-03-14T00:22:38;11.52;;;2.03;;
54167;SDS011;68429;50.958;3.592;2023-03-14T00:25:05;9.32;;;2.22;;
54167;SDS011;68429;50.958;3.592;2023-03-14T00:27:33;11.93;;;2.20;;
54167;SDS011;68429;50.958;3.592;2023-03-14T00:29:59;12.38;;;2.05;;
54167;SDS011;68429;50.958;3.592;2023-03-14T00:32:25;11.23;;;1.40;;
54167;SDS011;68429;50.958;3.592;2023-03-14T00:34:50;9.93;;;1.90;;
54167;SDS011;68429;50.958;3.592;2023-03-14T00:37:16;10.25;;;2.28;;
54167;SDS011;68429;50.958;3.592;2023-03-14T00:39:42;17.23;;;2.60;;
54167;SDS011;68429;50.958;3.592;2023-03-14T00:42:08;13.07;;;3.33;;
54167;SDS011;68429;50.958;3.592;2023-03-14T00:44:34;9.93;;;2.10;;
54167;SDS011;68429;50.958;3.592;2023-03-14T00:46:59;15.10;;;3.55;;
54167;SDS011;68429;50.958;3.592;2023-03-14T00:49:26;11.73;;;2.40;;
54167;SDS011;68429;50.958;3.592;2023-03-14T00:51:52;15.93;;;2.65;;
54167;SDS011;68429;50.958;3.592;2023-03-14T00:54:18;9.75;;;1.80;;
54167;SDS011;68429;50.958;3.592;2023-03-14T00:56:46;9.80;;;1.98;;
54167;SDS011;68429;50.958;3.592;2023-03-14T00:59:12;12.00;;;2.67;;
54167;SDS011;68429;50.958;3.592;2023-03-14T01:01:38;19.15;;;1.92;;
54167;SDS011;68429;50.958;3.592;2023-03-14T01:04:04;14.82;;;2.50;;
54167;SDS011;68429;50.958;3.592;2023-03-14T01:06:30;12.40;;;2.47;;
54167;SDS011;68429;50.958;3.592;2023-03-14T01:08:56;12.23;;;2.60;;
54167;SDS011;68429;50.958;3.592;2023-03-14T01:11:23;12.23;;;2.30;;
54167;SDS011;68429;50.958;3.592;2023-03-14T01:13:54;13.63;;;2.70;;
54167;SDS011;68429;50.958;3.592;2023-03-14T01:16:20;15.70;;;2.33;;
54167;SDS011;68429;50.958;3.592;2023-03-14T01:18:47;12.48;;;2.63;;
54167;SDS011;68429;50.958;3.592;2023-03-14T01:21:18;13.98;;;2.22;;
54167;SDS011;68429;50.958;3.592;2023-03-14T01:23:47;15.65;;;2.35;;
54167;SDS011;68429;50.958;3.592;2023-03-14T01:26:15;15.93;;;2.58;;
54167;SDS011;68429;50.958;3.592;2023-03-14T01:28:46;12.60;;;2.78;;
54167;SDS011;68429;50.958;3.592;2023-03-14T01:31:13;13.73;;;2.40;;
54167;SDS011;68429;50.958;3.592;2023-03-14T01:33:39;13.52;;;1.90;;
54167;SDS011;68429;50.958;3.592;2023-03-14T01:36:05;10.82;;;2.38;;
54167;SDS011;68429;50.958;3.592;2023-03-14T01:38:32;12.18;;;2.13;;
54167;SDS011;68429;50.958;3.592;2023-03-14T01:40:59;11.40;;;2.10;;
54167;SDS011;68429;50.958;3.592;2023-03-14T01:43:25;12.68;;;1.88;;
54167;SDS011;68429;50.958;3.592;2023-03-14T01:46:12;8.63;;;1.85;;
54167;SDS011;68429;50.958;3.592;2023-03-14T01:48:52;12.30;;;2.10;;
54167;SDS011;68429;50.958;3.592;2023-03-14T01:52:09;7.88;;;1.77;;
54167;SDS011;68429;50.958;3.592;2023-03-14T01:56:47;11.18;;;1.73;;
54167;SDS011;68429;50.958;3.592;2023-03-14T01:59:18;9.20;;;1.77;;
54167;SDS011;68429;50.958;3.592;2023-03-14T02:01:44;8.05;;;1.55;;
54167;SDS011;68429;50.958;3.592;2023-03-14T02:04:12;10.65;;;1.20;;
54167;SDS011;68429;50.958;3.592;2023-03-14T02:06:45;6.13;;;1.38;;
54167;SDS011;68429;50.958;3.592;2023-03-14T02:09:14;5.00;;;1.15;;
54167;SDS011;68429;50.958;3.592;2023-03-14T02:11:41;6.43;;;1.10;;
54167;SDS011;68429;50.958;3.592;2023-03-14T02:14:07;7.63;;;1.30;;
54167;SDS011;68429;50.958;3.592;2023-03-14T02:16:39;4.28;;;1.08;;
54167;SDS011;68429;50.958;3.592;2023-03-14T02:19:05;7.18;;;1.42;;
54167;SDS011;68429;50.958;3.592;2023-03-14T02:21:37;5.40;;;0.98;;
54167;SDS011;68429;50.958;3.592;2023-03-14T02:24:24;6.05;;;1.20;;
54167;SDS011;68429;50.958;3.592;2023-03-14T02:27:09;5.43;;;1.30;;
54167;SDS011;68429;50.958;3.592;2023-03-14T02:30:02;4.10;;;0.77;;
54167;SDS011;68429;50.958;3.592;2023-03-14T02:32:31;3.10;;;0.90;;
54167;SDS011;68429;50.958;3.592;2023-03-14T02:35:00;8.52;;;1.52;;
54167;SDS011;68429;50.958;3.592;2023-03-14T02:37:33;9.77;;;2.20;;
54167;SDS011;68429;50.958;3.592;2023-03-14T02:40:07;9.82;;;1.90;;
54167;SDS011;68429;50.958;3.592;2023-03-14T02:42:34;16.70;;;1.55;;
54167;SDS011;68429;50.958;3.592;2023-03-14T02:45:01;6.05;;;1.50;;
54167;SDS011;68429;50.958;3.592;2023-03-14T02:47:46;8.05;;;1.40;;
54167;SDS011;68429;50.958;3.592;2023-03-14T02:50:18;5.50;;;1.52;;
54167;SDS011;68429;50.958;3.592;2023-03-14T02:52:47;10.00;;;1.75;;
54167;SDS011;68429;50.958;3.592;2023-03-14T02:55:13;8.55;;;2.13;;
54167;SDS011;68429;50.958;3.592;2023-03-14T02:57:39;14.20;;;2.80;;
54167;SDS011;68429;50.958;3.592;2023-03-14T03:00:05;6.95;;;2.45;;
54167;SDS011;68429;50.958;3.592;2023-03-14T03:02:31;11.38;;;2.88;;
54167;SDS011;68429;50.958;3.592;2023-03-14T03:04:57;8.25;;;2.85;;
54167;SDS011;68429;50.958;3.592;2023-03-14T03:07:23;12.02;;;3.25;;
54167;SDS011;68429;50.958;3.592;2023-03-14T03:09:49;6.70;;;3.10;;
54167;SDS011;68429;50.958;3.592;2023-03-14T03:12:14;8.27;;;2.90;;
54167;SDS011;68429;50.958;3.592;2023-03-14T03:14:40;10.00;;;3.05;;
54167;SDS011;68429;50.958;3.592;2023-03-14T03:17:06;7.55;;;2.60;;
54167;SDS011;68429;50.958;3.592;2023-03-14T03:19:32;8.40;;;2.55;;
54167;SDS011;68429;50.958;3.592;2023-03-14T03:21:58;5.75;;;2.55;;
54167;SDS011;68429;50.958;3.592;2023-03-14T03:24:24;10.48;;;2.72;;
54167;SDS011;68429;50.958;3.592;2023-03-14T03:26:51;13.60;;;4.00;;
54167;SDS011;68429;50.958;3.592;2023-03-14T03:29:16;11.18;;;3.78;;
54167;SDS011;68429;50.958;3.592;2023-03-14T03:31:42;8.27;;;3.10;;
54167;SDS011;68429;50.958;3.592;2023-03-14T03:34:10;11.55;;;3.72;;
54167;SDS011;68429;50.958;3.592;2023-03-14T03:36:36;10.55;;;3.80;;
54167;SDS011;68429;50.958;3.592;2023-03-14T03:39:02;12.63;;;4.03;;
54167;SDS011;68429;50.958;3.592;2023-03-14T03:41:28;14.93;;;4.43;;
54167;SDS011;68429;50.958;3.592;2023-03-14T03:43:55;8.85;;;3.58;;
54167;SDS011;68429;50.958;3.592;2023-03-14T03:46:21;10.68;;;4.15;;
54167;SDS011;68429;50.958;3.592;2023-03-14T03:48:47;13.50;;;4.35;;
54167;SDS011;68429;50.958;3.592;2023-03-14T03:51:13;15.20;;;4.22;;
54167;SDS011;68429;50.958;3.592;2023-03-14T03:53:40;9.68;;;3.50;;
54167;SDS011;68429;50.958;3.592;2023-03-14T03:56:07;11.23;;;4.13;;
54167;SDS011;68429;50.958;3.592;2023-03-14T03:58:33;9.68;;;3.40;;
54167;SDS011;68429;50.958;3.592;2023-03-14T04:00:59;10.93;;;3.47;;
54167;SDS011;68429;50.958;3.592;2023-03-14T04:03:24;9.50;;;3.00;;
54167;SDS011;68429;50.958;3.592;2023-03-14T04:05:58;10.73;;;3.17;;
54167;SDS011;68429;50.958;3.592;2023-03-14T04:08:28;7.88;;;2.80;;
54167;SDS011;68429;50.958;3.592;2023-03-14T04:10:57;13.70;;;3.13;;
54167;SDS011;68429;50.958;3.592;2023-03-14T04:13:24;16.08;;;3.38;;
54167;SDS011;68429;50.958;3.592;2023-03-14T04:15:51;12.15;;;2.85;;
54167;SDS011;68429;50.958;3.592;2023-03-14T04:18:17;8.85;;;2.65;;
54167;SDS011;68429;50.958;3.592;2023-03-14T04:20:43;11.20;;;2.58;;
54167;SDS011;68429;50.958;3.592;2023-03-14T04:23:09;9.50;;;3.03;;
54167;SDS011;68429;50.958;3.592;2023-03-14T04:25:35;10.50;;;2.05;;
54167;SDS011;68429;50.958;3.592;2023-03-14T04:28:00;10.60;;;2.30;;
54167;SDS011;68429;50.958;3.592;2023-03-14T04:30:26;3.53;;;1.60;;
54167;SDS011;68429;50.958;3.592;2023-03-14T04:32:52;6.20;;;1.60;;
54167;SDS011;68429;50.958;3.592;2023-03-14T04:35:18;10.00;;;2.08;;
54167;SDS011;68429;50.958;3.592;2023-03-14T04:37:43;4.97;;;1.50;;
54167;SDS011;68429;50.958;3.592;2023-03-14T04:40:10;8.27;;;1.08;;
54167;SDS011;68429;50.958;3.592;2023-03-14T04:42:36;4.47;;;1.80;;
54167;SDS011;68429;50.958;3.592;2023-03-14T04:45:01;2.22;;;1.30;;
54167;SDS011;68429;50.958;3.592;2023-03-14T04:47:28;7.55;;;1.83;;
54167;SDS011;68429;50.958;3.592;2023-03-14T04:49:54;6.75;;;1.63;;
54167;SDS011;68429;50.958;3.592;2023-03-14T04:52:19;6.82;;;1.83;;
54167;SDS011;68429;50.958;3.592;2023-03-14T04:54:45;4.82;;;1.40;;
54167;SDS011;68429;50.958;3.592;2023-03-14T04:57:11;7.07;;;1.88;;
54167;SDS011;68429;50.958;3.592;2023-03-14T04:59:36;8.70;;;1.55;;
54167;SDS011;68429;50.958;3.592;2023-03-14T05:02:02;4.05;;;1.30;;
54167;SDS011;68429;50.958;3.592;2023-03-14T05:04:28;4.50;;;1.10;;
54167;SDS011;68429;50.958;3.592;2023-03-14T05:06:54;5.53;;;1.25;;
54167;SDS011;68429;50.958;3.592;2023-03-14T05:09:20;5.10;;;1.38;;
54167;SDS011;68429;50.958;3.592;2023-03-14T05:11:45;7.43;;;2.40;;
54167;SDS011;68429;50.958;3.592;2023-03-14T05:14:11;3.85;;;1.52;;
54167;SDS011;68429;50.958;3.592;2023-03-14T05:16:37;4.28;;;1.80;;
54167;SDS011;68429;50.958;3.592;2023-03-14T05:19:02;6.25;;;1.92;;
54167;SDS011;68429;50.958;3.592;2023-03-14T05:21:28;5.13;;;1.58;;
54167;SDS011;68429;50.958;3.592;2023-03-14T05:23:54;9.00;;;2.10;;
54167;SDS011;68429;50.958;3.592;2023-03-14T05:26:19;4.70;;;2.05;;
54167;SDS011;68429;50.958;3.592;2023-03-14T05:28:45;7.00;;;2.13;;
54167;SDS011;68429;50.958;3.592;2023-03-14T05:31:11;4.63;;;2.45;;
54167;SDS011;68429;50.958;3.592;2023-03-14T05:33:36;8.13;;;2.67;;
54167;SDS011;68429;50.958;3.592;2023-03-14T05:36:02;7.90;;;2.47;;
54167;SDS011;68429;50.958;3.592;2023-03-14T05:38:28;4.57;;;2.20;;
54167;SDS011;68429;50.958;3.592;2023-03-14T05:40:54;8.13;;;2.30;;
54167;SDS011;68429;50.958;3.592;2023-03-14T05:43:20;9.40;;;3.15;;
54167;SDS011;68429;50.958;3.592;2023-03-14T05:45:45;5.97;;;2.88;;
54167;SDS011;68429;50.958;3.592;2023-03-14T05:48:11;7.95;;;3.13;;
54167;SDS011;68429;50.958;3.592;2023-03-14T05:50:37;7.85;;;3.92;;
54167;SDS011;68429;50.958;3.592;2023-03-14T05:53:02;12.85;;;4.20;;
54167;SDS011;68429;50.958;3.592;2023-03-14T05:55:28;11.13;;;3.58;;
54167;SDS011;68429;50.958;3.592;2023-03-14T05:57:54;8.30;;;3.28;;
54167;SDS011;68429;50.958;3.592;2023-03-14T06:00:20;6.32;;;3.17;;
54167;SDS011;68429;50.958;3.592;2023-03-14T06:02:46;7.43;;;3.33;;
54167;SDS011;68429;50.958;3.592;2023-03-14T06:05:12;10.15;;;3.53;;
54167;SDS011;68429;50.958;3.592;2023-03-14T06:07:38;6.15;;;2.58;;
54167;SDS011;68429;50.958;3.592;2023-03-14T06:10:04;6.90;;;2.30;;
54167;SDS011;68429;50.958;3.592;2023-03-14T06:12:30;6.50;;;2.20;;
54167;SDS011;68429;50.958;3.592;2023-03-14T06:14:55;4.72;;;1.65;;
54167;SDS011;68429;50.958;3.592;2023-03-14T06:17:21;4.45;;;1.20;;
54167;SDS011;68429;50.958;3.592;2023-03-14T06:19:47;6.07;;;1.80;;
54167;SDS011;68429;50.958;3.592;2023-03-14T06:22:12;7.80;;;2.60;;
54167;SDS011;68429;50.958;3.592;2023-03-14T06:24:38;4.80;;;2.15;;
54167;SDS011;68429;50.958;3.592;2023-03-14T06:27:04;10.73;;;3.00;;
54167;SDS011;68429;50.958;3.592;2023-03-14T06:29:30;10.00;;;3.03;;
54167;SDS011;68429;50.958;3.592;2023-03-14T06:31:55;15.13;;;3.28;;
54167;SDS011;68429;50.958;3.592;2023-03-14T06:34:21;8.82;;;3.55;;
54167;SDS011;68429;50.958;3.592;2023-03-14T06:36:47;11.40;;;3.15;;
54167;SDS011;68429;50.958;3.592;2023-03-14T06:39:13;13.15;;;4.75;;
54167;SDS011;68429;50.958;3.592;2023-03-14T06:41:38;8.35;;;3.78;;
54167;SDS011;68429;50.958;3.592;2023-03-14T06:44:04;6.47;;;2.85;;
54167;SDS011;68429;50.958;3.592;2023-03-14T06:46:30;10.60;;;4.07;;
54167;SDS011;68429;50.958;3.592;2023-03-14T06:48:56;9.52;;;3.97;;
54167;SDS011;68429;50.958;3.592;2023-03-14T06:51:22;10.55;;;5.00;;
54167;SDS011;68429;50.958;3.592;2023-03-14T06:53:47;13.00;;;5.38;;
54167;SDS011;68429;50.958;3.592;2023-03-14T06:56:13;20.90;;;6.93;;
54167;SDS011;68429;50.958;3.592;2023-03-14T06:58:42;12.30;;;4.90;;
54167;SDS011;68429;50.958;3.592;2023-03-14T07:01:18;9.57;;;5.20;;
54167;SDS011;68429;50.958;3.592;2023-03-14T07:03:47;14.57;;;5.65;;
54167;SDS011;68429;50.958;3.592;2023-03-14T07:06:13;11.18;;;3.90;;
54167;SDS011;68429;50.958;3.592;2023-03-14T07:08:39;11.48;;;4.80;;
54167;SDS011;68429;50.958;3.592;2023-03-14T07:11:04;12.30;;;3.22;;
54167;SDS011;68429;50.958;3.592;2023-03-14T07:13:30;16.10;;;4.38;;
54167;SDS011;68429;50.958;3.592;2023-03-14T07:15:56;13.00;;;4.68;;
54167;SDS011;68429;50.958;3.592;2023-03-14T07:18:21;13.55;;;3.63;;
54167;SDS011;68429;50.958;3.592;2023-03-14T07:20:47;22.13;;;4.97;;
54167;SDS011;68429;50.958;3.592;2023-03-14T07:23:13;12.90;;;3.05;;
54167;SDS011;68429;50.958;3.592;2023-03-14T07:25:38;16.00;;;3.42;;
54167;SDS011;68429;50.958;3.592;2023-03-14T07:28:04;13.15;;;3.25;;
54167;SDS011;68429;50.958;3.592;2023-03-14T07:30:30;23.67;;;4.13;;
54167;SDS011;68429;50.958;3.592;2023-03-14T07:32:55;16.10;;;2.88;;
54167;SDS011;68429;50.958;3.592;2023-03-14T07:35:21;14.70;;;3.28;;
54167;SDS011;68429;50.958;3.592;2023-03-14T07:37:47;17.10;;;3.35;;
54167;SDS011;68429;50.958;3.592;2023-03-14T07:40:12;21.48;;;3.45;;
54167;SDS011;68429;50.958;3.592;2023-03-14T07:42:40;16.65;;;3.17;;
54167;SDS011;68429;50.958;3.592;2023-03-14T07:45:06;17.90;;;3.35;;
54167;SDS011;68429;50.958;3.592;2023-03-14T07:47:33;15.52;;;3.28;;
54167;SDS011;68429;50.958;3.592;2023-03-14T07:49:58;20.77;;;2.78;;
54167;SDS011;68429;50.958;3.592;2023-03-14T07:52:24;17.50;;;3.20;;
54167;SDS011;68429;50.958;3.592;2023-03-14T07:54:50;20.08;;;4.07;;
54167;SDS011;68429;50.958;3.592;2023-03-14T07:57:15;15.95;;;3.72;;
54167;SDS011;68429;50.958;3.592;2023-03-14T07:59:41;16.13;;;2.92;;
54167;SDS011;68429;50.958;3.592;2023-03-14T08:02:10;18.15;;;3.20;;
54167;SDS011;68429;50.958;3.592;2023-03-14T08:04:37;17.75;;;3.55;;
54167;SDS011;68429;50.958;3.592;2023-03-14T08:07:03;11.32;;;2.58;;
54167;SDS011;68429;50.958;3.592;2023-03-14T08:09:29;11.82;;;2.85;;
54167;SDS011;68429;50.958;3.592;2023-03-14T08:11:55;19.38;;;3.08;;
54167;SDS011;68429;50.958;3.592;2023-03-14T08:14:20;18.95;;;3.03;;
54167;SDS011;68429;50.958;3.592;2023-03-14T08:16:48;23.13;;;3.45;;
54167;SDS011;68429;50.958;3.592;2023-03-14T08:19:15;18.77;;;3.17;;
54167;SDS011;68429;50.958;3.592;2023-03-14T08:21:40;20.42;;;2.97;;
54167;SDS011;68429;50.958;3.592;2023-03-14T08:24:06;14.43;;;3.33;;
54167;SDS011;68429;50.958;3.592;2023-03-14T08:26:32;21.83;;;3.58;;
54167;SDS011;68429;50.958;3.592;2023-03-14T08:28:58;14.02;;;2.63;;
54167;SDS011;68429;50.958;3.592;2023-03-14T08:31:23;16.08;;;2.45;;
54167;SDS011;68429;50.958;3.592;2023-03-14T08:33:49;16.27;;;2.53;;
54167;SDS011;68429;50.958;3.592;2023-03-14T08:36:17;15.52;;;3.15;;
54167;SDS011;68429;50.958;3.592;2023-03-14T08:38:43;14.63;;;2.40;;
54167;SDS011;68429;50.958;3.592;2023-03-14T08:41:09;16.10;;;2.13;;
54167;SDS011;68429;50.958;3.592;2023-03-14T08:43:35;11.02;;;2.58;;
54167;SDS011;68429;50.958;3.592;2023-03-14T08:46:02;6.80;;;1.73;;
54167;SDS011;68429;50.958;3.592;2023-03-14T08:48:28;13.60;;;2.08;;
54167;SDS011;68429;50.958;3.592;2023-03-14T08:50:55;8.15;;;1.88;;
54167;SDS011;68429;50.958;3.592;2023-03-14T08:53:22;6.80;;;2.00;;
54167;SDS011;68429;50.958;3.592;2023-03-14T08:55:51;12.45;;;2.10;;
54167;SDS011;68429;50.958;3.592;2023-03-14T08:58:19;14.20;;;2.08;;
54167;SDS011;68429;50.958;3.592;2023-03-14T09:00:44;13.50;;;2.92;;
54167;SDS011;68429;50.958;3.592;2023-03-14T09:03:10;10.82;;;2.25;;
54167;SDS011;68429;50.958;3.592;2023-03-14T09:05:36;9.85;;;1.92;;
54167;SDS011;68429;50.958;3.592;2023-03-14T09:08:01;14.23;;;2.90;;
54167;SDS011;68429;50.958;3.592;2023-03-14T09:10:27;6.47;;;1.50;;
54167;SDS011;68429;50.958;3.592;2023-03-14T09:12:53;10.23;;;1.80;;
54167;SDS011;68429;50.958;3.592;2023-03-14T09:15:19;9.57;;;1.75;;
54167;SDS011;68429;50.958;3.592;2023-03-14T09:17:44;15.65;;;2.75;;
54167;SDS011;68429;50.958;3.592;2023-03-14T09:20:10;8.35;;;1.90;;
54167;SDS011;68429;50.958;3.592;2023-03-14T09:22:36;13.75;;;2.03;;
54167;SDS011;68429;50.958;3.592;2023-03-14T09:25:05;8.70;;;1.88;;
54167;SDS011;68429;50.958;3.592;2023-03-14T09:27:31;21.55;;;2.83;;
54167;SDS011;68429;50.958;3.592;2023-03-14T09:29:57;17.00;;;2.63;;
54167;SDS011;68429;50.958;3.592;2023-03-14T09:32:23;12.48;;;2.03;;
54167;SDS011;68429;50.958;3.592;2023-03-14T09:34:48;18.70;;;2.22;;
54167;SDS011;68429;50.958;3.592;2023-03-14T09:37:14;8.68;;;2.25;;
54167;SDS011;68429;50.958;3.592;2023-03-14T09:39:41;7.28;;;1.38;;
54167;SDS011;68429;50.958;3.592;2023-03-14T09:42:07;6.72;;;1.75;;
54167;SDS011;68429;50.958;3.592;2023-03-14T09:44:37;6.18;;;1.70;;
54167;SDS011;68429;50.958;3.592;2023-03-14T09:47:09;7.78;;;2.13;;
54167;SDS011;68429;50.958;3.592;2023-03-14T09:49:39;11.63;;;2.35;;
54167;SDS011;68429;50.958;3.592;2023-03-14T09:52:16;11.52;;;1.73;;
54167;SDS011;68429;50.958;3.592;2023-03-14T09:55:31;9.07;;;2.30;;
54167;SDS011;68429;50.958;3.592;2023-03-14T09:57:37;14.55;;;1.92;;
54167;SDS011;68429;50.958;3.592;2023-03-14T10:02:41;12.73;;;1.75;;
54167;SDS011;68429;50.958;3.592;2023-03-14T10:05:24;8.45;;;1.88;;
54167;SDS011;68429;50.958;3.592;2023-03-14T10:07:52;5.03;;;1.48;;
54167;SDS011;68429;50.958;3.592;2023-03-14T10:10:20;8.70;;;1.30;;
54167;SDS011;68429;50.958;3.592;2023-03-14T10:12:49;8.55;;;1.40;;
54167;SDS011;68429;50.958;3.592;2023-03-14T10:15:25;9.75;;;1.95;;
54167;SDS011;68429;50.958;3.592;2023-03-14T10:17:58;7.22;;;1.25;;
54167;SDS011;68429;50.958;3.592;2023-03-14T10:20:35;9.68;;;1.83;;
54167;SDS011;68429;50.958;3.592;2023-03-14T10:25:41;8.85;;;1.50;;
54167;SDS011;68429;50.958;3.592;2023-03-14T10:28:28;7.85;;;1.60;;
54167;SDS011;68429;50.958;3.592;2023-03-14T10:31:02;5.63;;;1.20;;
54167;SDS011;68429;50.958;3.592;2023-03-14T10:33:33;6.03;;;1.55;;
54167;SDS011;68429;50.958;3.592;2023-03-14T10:36:02;8.35;;;1.63;;
54167;SDS011;68429;50.958;3.592;2023-03-14T10:38:29;8.90;;;1.63;;
54167;SDS011;68429;50.958;3.592;2023-03-14T10:40:56;4.43;;;1.23;;
54167;SDS011;68429;50.958;3.592;2023-03-14T10:43:42;8.25;;;1.45;;
54167;SDS011;68429;50.958;3.592;2023-03-14T10:46:09;5.35;;;2.60;;
54167;SDS011;68429;50.958;3.592;2023-03-14T10:48:42;6.72;;;1.60;;
54167;SDS011;68429;50.958;3.592;2023-03-14T10:53:43;6.25;;;1.30;;
54167;SDS011;68429;50.958;3.592;2023-03-14T10:56:11;6.13;;;0.90;;
54167;SDS011;68429;50.958;3.592;2023-03-14T10:58:48;6.18;;;0.98;;
54167;SDS011;68429;50.958;3.592;2023-03-14T11:21:40;11.27;;;1.70;;
54167;SDS011;68429;50.958;3.592;2023-03-14T11:31:59;14.38;;;2.58;;
54167;SDS011;68429;50.958;3.592;2023-03-14T11:34:32;11.35;;;2.20;;
54167;SDS011;68429;50.958;3.592;2023-03-14T11:37:17;11.27;;;1.42;;
54167;SDS011;68429;50.958;3.592;2023-03-14T11:40:05;36.72;;;19.10;;
54167;SDS011;68429;50.958;3.592;2023-03-14T11:42:40;12.75;;;2.80;;
54167;SDS011;68429;50.958;3.592;2023-03-14T11:45:51;9.27;;;1.90;;
54167;SDS011;68429;50.958;3.592;2023-03-14T11:50:39;8.13;;;3.40;;
54167;SDS011;68429;50.958;3.592;2023-03-14T11:55:42;7.55;;;1.98;;
54167;SDS011;68429;50.958;3.592;2023-03-14T12:00:41;7.60;;;2.95;;
54167;SDS011;68429;50.958;3.592;2023-03-14T12:03:18;9.73;;;3.53;;
54167;SDS011;68429;50.958;3.592;2023-03-14T12:10:56;5.35;;;1.92;;
54167;SDS011;68429;50.958;3.592;2023-03-14T12:13:31;7.75;;;2.50;;
54167;SDS011;68429;50.958;3.592;2023-03-14T12:16:04;6.35;;;2.05;;
54167;SDS011;68429;50.958;3.592;2023-03-14T12:18:51;5.88;;;1.83;;
54167;SDS011;68429;50.958;3.592;2023-03-14T12:21:18;8.38;;;2.10;;
54167;SDS011;68429;50.958;3.592;2023-03-14T12:23:44;8.18;;;1.90;;
54167;SDS011;68429;50.958;3.592;2023-03-14T12:26:19;10.48;;;2.03;;
54167;SDS011;68429;50.958;3.592;2023-03-14T12:28:51;15.87;;;4.17;;
54167;SDS011;68429;50.958;3.592;2023-03-14T12:47:41;44.75;;;6.20;;
54167;SDS011;68429;50.958;3.592;2023-03-14T12:50:14;39.97;;;4.85;;
54167;SDS011;68429;50.958;3.592;2023-03-14T12:55:15;33.88;;;5.03;;
54167;SDS011;68429;50.958;3.592;2023-03-14T12:58:08;40.58;;;4.75;;
54167;SDS011;68429;50.958;3.592;2023-03-14T13:01:02;43.28;;;4.82;;
54167;SDS011;68429;50.958;3.592;2023-03-14T13:03:45;41.22;;;4.90;;
54167;SDS011;68429;50.958;3.592;2023-03-14T13:12:09;34.72;;;4.07;;
54167;SDS011;68429;50.958;3.592;2023-03-14T13:14:40;25.42;;;3.72;;
54167;SDS011;68429;50.958;3.592;2023-03-14T13:17:10;18.63;;;2.92;;
54167;SDS011;68429;50.958;3.592;2023-03-14T13:19:37;19.25;;;3.05;;
54167;SDS011;68429;50.958;3.592;2023-03-14T13:22:05;19.05;;;3.00;;
54167;SDS011;68429;50.958;3.592;2023-03-14T13:24:45;21.15;;;4.72;;
54167;SDS011;68429;50.958;3.592;2023-03-14T13:27:18;20.25;;;3.05;;
54167;SDS011;68429;50.958;3.592;2023-03-14T13:29:48;18.40;;;3.22;;
54167;SDS011;68429;50.958;3.592;2023-03-14T13:32:39;17.30;;;4.13;;
54167;SDS011;68429;50.958;3.592;2023-03-14T13:35:13;31.17;;;3.58;;
54167;SDS011;68429;50.958;3.592;2023-03-14T13:37:40;16.75;;;2.95;;
54167;SDS011;68429;50.958;3.592;2023-03-14T13:40:18;20.50;;;4.47;;
54167;SDS011;68429;50.958;3.592;2023-03-14T13:42:45;20.80;;;4.20;;
54167;SDS011;68429;50.958;3.592;2023-03-14T13:45:12;18.63;;;3.40;;
54167;SDS011;68429;50.958;3.592;2023-03-14T13:47:38;25.95;;;3.67;;
54167;SDS011;68429;50.958;3.592;2023-03-14T13:50:05;19.08;;;3.33;;
54167;SDS011;68429;50.958;3.592;2023-03-14T13:52:40;22.38;;;3.70;;
54167;SDS011;68429;50.958;3.592;2023-03-14T13:55:06;16.50;;;3.50;;
54167;SDS011;68429;50.958;3.592;2023-03-14T13:57:46;17.98;;;2.75;;
54167;SDS011;68429;50.958;3.592;2023-03-14T14:00:31;21.40;;;2.65;;
54167;SDS011;68429;50.958;3.592;2023-03-14T14:02:57;15.60;;;2.15;;
54167;SDS011;68429;50.958;3.592;2023-03-14T14:05:27;11.32;;;2.35;;
54167;SDS011;68429;50.958;3.592;2023-03-14T14:07:54;13.82;;;1.77;;
54167;SDS011;68429;50.958;3.592;2023-03-14T14:10:21;22.50;;;2.85;;
54167;SDS011;68429;50.958;3.592;2023-03-14T14:13:03;9.90;;;2.22;;
54167;SDS011;68429;50.958;3.592;2023-03-14T14:15:32;12.02;;;2.42;;
54167;SDS011;68429;50.958;3.592;2023-03-14T14:18:03;13.32;;;2.22;;
54167;SDS011;68429;50.958;3.592;2023-03-14T14:20:32;16.42;;;1.83;;
54167;SDS011;68429;50.958;3.592;2023-03-14T14:23:07;10.20;;;1.58;;
54167;SDS011;68429;50.958;3.592;2023-03-14T14:25:36;9.93;;;1.67;;
54167;SDS011;68429;50.958;3.592;2023-03-14T14:31:03;7.32;;;0.90;;
54167;SDS011;68429;50.958;3.592;2023-03-14T14:33:30;4.50;;;0.93;;
54167;SDS011;68429;50.958;3.592;2023-03-14T14:36:04;4.00;;;1.02;;
54167;SDS011;68429;50.958;3.592;2023-03-14T14:38:37;5.90;;;0.70;;
54167;SDS011;68429;50.958;3.592;2023-03-14T14:41:03;4.70;;;1.30;;
54167;SDS011;68429;50.958;3.592;2023-03-14T14:43:30;5.43;;;1.55;;
54167;SDS011;68429;50.958;3.592;2023-03-14T14:45:59;8.38;;;1.40;;
54167;SDS011;68429;50.958;3.592;2023-03-14T14:48:25;7.85;;;0.90;;
54167;SDS011;68429;50.958;3.592;2023-03-14T14:51:03;5.32;;;1.10;;
54167;SDS011;68429;50.958;3.592;2023-03-14T14:53:31;7.75;;;1.30;;
54167;SDS011;68429;50.958;3.592;2023-03-14T14:58:45;4.60;;;1.08;;
54167;SDS011;68429;50.958;3.592;2023-03-14T15:01:16;8.80;;;1.60;;
54167;SDS011;68429;50.958;3.592;2023-03-14T15:03:47;7.50;;;1.20;;
54167;SDS011;68429;50.958;3.592;2023-03-14T15:06:18;7.13;;;1.20;;
54167;SDS011;68429;50.958;3.592;2023-03-14T15:08:45;7.32;;;1.35;;
54167;SDS011;68429;50.958;3.592;2023-03-14T15:11:16;9.63;;;1.98;;
54167;SDS011;68429;50.958;3.592;2023-03-14T15:13:43;3.33;;;1.65;;
54167;SDS011;68429;50.958;3.592;2023-03-14T15:16:12;7.75;;;2.00;;
54167;SDS011;68429;50.958;3.592;2023-03-14T15:18:44;10.27;;;1.95;;
54167;SDS011;68429;50.958;3.592;2023-03-14T15:21:15;9.13;;;1.70;;
54167;SDS011;68429;50.958;3.592;2023-03-14T15:23:40;4.63;;;1.10;;
54167;SDS011;68429;50.958;3.592;2023-03-14T15:26:16;5.50;;;2.10;;
54167;SDS011;68429;50.958;3.592;2023-03-14T15:28:44;5.65;;;1.50;;
54167;SDS011;68429;50.958;3.592;2023-03-14T15:31:12;8.15;;;2.00;;
54167;SDS011;68429;50.958;3.592;2023-03-14T15:33:38;6.18;;;0.98;;
54167;SDS011;68429;50.958;3.592;2023-03-14T15:36:04;4.13;;;1.35;;
54167;SDS011;68429;50.958;3.592;2023-03-14T15:38:31;5.07;;;1.55;;
54167;SDS011;68429;50.958;3.592;2023-03-14T15:40:57;8.38;;;2.72;;
54167;SDS011;68429;50.958;3.592;2023-03-14T15:43:23;5.85;;;1.77;;
54167;SDS011;68429;50.958;3.592;2023-03-14T15:45:48;4.30;;;2.45;;
54167;SDS011;68429;50.958;3.592;2023-03-14T15:48:19;7.50;;;1.50;;
54167;SDS011;68429;50.958;3.592;2023-03-14T15:50:46;7.40;;;1.60;;
54167;SDS011;68429;50.958;3.592;2023-03-14T15:53:12;6.10;;;1.80;;
54167;SDS011;68429;50.958;3.592;2023-03-14T15:55:38;10.02;;;2.38;;
54167;SDS011;68429;50.958;3.592;2023-03-14T15:58:04;10.80;;;2.30;;
54167;SDS011;68429;50.958;3.592;2023-03-14T16:00:30;6.32;;;1.23;;
54167;SDS011;68429;50.958;3.592;2023-03-14T16:02:57;13.80;;;2.38;;
54167;SDS011;68429;50.958;3.592;2023-03-14T16:05:22;11.38;;;3.35;;
54167;SDS011;68429;50.958;3.592;2023-03-14T16:07:48;8.38;;;1.73;;
54167;SDS011;68429;50.958;3.592;2023-03-14T16:10:14;16.00;;;2.10;;